createdAt,value
2022-10-29T00:00:20.522Z,99.90
2022-10-29T00:02:48.597Z,99.90
2022-10-29T00:05:16.691Z,99.90
2022-10-29T00:07:44.652Z,99.90
2022-10-29T00:10:12.600Z,99.90
2022-10-29T00:12:40.550Z,99.90
2022-10-29T00:15:09.473Z,99.90
2022-10-29T00:17:38.752Z,99.90
2022-10-29T00:22:40.891Z,99.90
2022-10-29T00:25:09.530Z,99.90
2022-10-29T00:27:37.478Z,99.90
2022-10-29T00:30:05.993Z,99.90
2022-10-29T00:32:33.908Z,99.90
2022-10-29T00:35:03.184Z,99.90
2022-10-29T00:37:31.145Z,99.90
2022-10-29T00:39:59.050Z,99.90
2022-10-29T00:42:26.927Z,99.90
2022-10-29T00:44:54.803Z,99.90
2022-10-29T00:47:26.719Z,99.90
2022-10-29T00:50:00.238Z,99.90
2022-10-29T00:52:33.521Z,99.90
2022-10-29T00:55:03.877Z,99.90
2022-10-29T00:57:37.872Z,99.90
2022-10-29T01:00:07.162Z,99.90
2022-10-29T01:02:36.967Z,99.90
2022-10-29T01:05:06.429Z,99.90
2022-10-29T01:07:35.965Z,99.90
2022-10-29T01:10:04.004Z,99.90
2022-10-29T01:12:52.077Z,99.90
2022-10-29T01:15:27.156Z,99.90
2022-10-29T01:18:08.238Z,99.90
2022-10-29T01:21:09.776Z,99.90
2022-10-29T01:24:31.877Z,99.90
2022-10-29T01:27:38.637Z,99.90
2022-10-29T01:30:17.309Z,99.90
2022-10-29T01:32:57.241Z,99.90
2022-10-29T01:35:34.264Z,99.90
2022-10-29T01:38:15.369Z,99.90
2022-10-29T01:40:50.760Z,99.90
2022-10-29T01:43:23.620Z,99.90
2022-10-29T01:45:56.908Z,99.90
2022-10-29T01:48:33.220Z,99.90
2022-10-29T01:51:05.733Z,99.90
2022-10-29T01:53:38.388Z,99.90
2022-10-29T01:56:06.770Z,99.90
2022-10-29T01:58:36.806Z,99.90
2022-10-29T02:01:16.650Z,99.90
2022-10-29T02:03:56.876Z,99.90
2022-10-29T02:06:37.531Z,99.90
2022-10-29T02:09:11.508Z,99.90
2022-10-29T02:11:47.277Z,99.90
2022-10-29T02:14:22.633Z,99.90
2022-10-29T02:16:50.893Z,99.90
2022-10-29T02:19:20.446Z,99.90
2022-10-29T02:21:48.342Z,99.90
2022-10-29T02:24:16.254Z,99.90
2022-10-29T02:26:44.152Z,99.90
2022-10-29T02:29:12.052Z,99.90
2022-10-29T02:31:39.975Z,99.90
2022-10-29T02:34:07.868Z,99.90
2022-10-29T02:36:37.167Z,99.90
2022-10-29T02:39:05.273Z,99.90
2022-10-29T02:41:33.192Z,99.90
2022-10-29T02:44:01.123Z,99.90
2022-10-29T02:46:30.194Z,99.90
2022-10-29T02:48:58.133Z,99.90
2022-10-29T02:51:26.045Z,99.90
2022-10-29T02:53:55.434Z,99.90
2022-10-29T02:56:23.336Z,99.90
2022-10-29T02:58:51.267Z,99.90
2022-10-29T03:01:19.317Z,99.90
2022-10-29T03:03:47.292Z,99.90
2022-10-29T03:06:15.948Z,99.90
2022-10-29T03:08:43.879Z,99.90
2022-10-29T03:11:13.402Z,99.90
2022-10-29T03:13:41.407Z,99.90
2022-10-29T03:16:12.544Z,99.90
2022-10-29T03:18:40.468Z,99.90
2022-10-29T03:21:08.430Z,99.90
2022-10-29T03:23:36.345Z,99.90
2022-10-29T03:26:04.351Z,99.90
2022-10-29T03:28:33.662Z,99.90
2022-10-29T03:31:01.638Z,99.90
2022-10-29T03:33:29.664Z,99.90
2022-10-29T03:35:58.704Z,99.90
2022-10-29T03:38:27.107Z,99.90
2022-10-29T03:40:55.366Z,99.90
2022-10-29T03:43:23.241Z,99.90
2022-10-29T03:45:53.165Z,99.90
2022-10-29T03:48:21.429Z,99.90
2022-10-29T03:50:56.303Z,99.90
2022-10-29T03:53:24.590Z,99.90
2022-10-29T03:55:52.802Z,99.90
2022-10-29T03:58:20.944Z,99.90
2022-10-29T04:00:56.879Z,99.90
2022-10-29T04:03:25.202Z,99.90
2022-10-29T04:05:53.545Z,99.90
2022-10-29T04:08:21.633Z,99.90
2022-10-29T04:10:51.216Z,99.90
2022-10-29T04:13:19.737Z,99.90
2022-10-29T04:15:47.856Z,99.90
2022-10-29T04:18:17.125Z,99.90
2022-10-29T04:22:06.025Z,99.90
2022-10-29T04:29:08.780Z,99.90
2022-10-29T04:31:36.926Z,99.90
2022-10-29T04:34:06.578Z,99.90
2022-10-29T04:36:34.526Z,99.90
2022-10-29T04:39:02.577Z,99.90
2022-10-29T04:41:30.530Z,99.90
2022-10-29T04:43:58.543Z,99.90
2022-10-29T04:46:26.484Z,99.90
2022-10-29T04:48:54.451Z,99.90
2022-10-29T04:51:25.319Z,99.90
2022-10-29T04:53:53.237Z,99.90
2022-10-29T04:56:21.195Z,99.90
2022-10-29T04:58:52.260Z,99.90
2022-10-29T05:01:20.712Z,99.90
2022-10-29T05:03:48.731Z,99.90
2022-10-29T05:06:16.632Z,99.90
2022-10-29T05:08:45.921Z,99.90
2022-10-29T05:11:13.821Z,99.90
2022-10-29T05:13:41.952Z,99.90
2022-10-29T05:16:09.894Z,99.90
2022-10-29T05:18:39.077Z,99.90
2022-10-29T05:21:07.235Z,99.90
2022-10-29T05:23:35.273Z,99.90
2022-10-29T05:26:04.891Z,99.90
2022-10-29T05:28:32.803Z,99.90
2022-10-29T05:31:02.355Z,99.90
2022-10-29T05:33:30.399Z,99.90
2022-10-29T05:36:00.646Z,99.90
2022-10-29T05:38:28.541Z,99.90
2022-10-29T05:40:59.055Z,99.90
2022-10-29T05:43:28.558Z,99.90
2022-10-29T05:45:56.442Z,99.90
2022-10-29T05:48:27.401Z,99.90
2022-10-29T05:50:55.300Z,99.90
2022-10-29T05:53:23.206Z,99.90
2022-10-29T05:55:51.103Z,99.90
2022-10-29T05:58:19.054Z,99.90
2022-10-29T06:00:48.303Z,99.90
2022-10-29T06:03:18.316Z,99.90
2022-10-29T06:05:47.791Z,99.90
2022-10-29T06:08:15.793Z,99.90
2022-10-29T06:10:43.727Z,99.90
2022-10-29T06:13:12.498Z,99.90
2022-10-29T06:15:40.455Z,99.90
2022-10-29T06:18:09.985Z,99.90
2022-10-29T06:20:38.800Z,99.90
2022-10-29T06:23:07.022Z,99.90
2022-10-29T06:25:34.985Z,99.90
2022-10-29T06:28:04.752Z,99.90
2022-10-29T06:30:34.393Z,99.90
2022-10-29T06:33:03.021Z,99.90
2022-10-29T06:35:32.829Z,99.90
2022-10-29T06:38:01.316Z,99.90
2022-10-29T06:40:29.914Z,99.90
2022-10-29T06:43:01.541Z,99.90
2022-10-29T06:45:29.750Z,99.90
2022-10-29T06:47:58.557Z,99.90
2022-10-29T06:50:27.208Z,99.90
2022-10-29T06:52:58.295Z,99.90
2022-10-29T06:55:28.393Z,99.90
2022-10-29T06:58:00.943Z,99.90
2022-10-29T07:00:29.337Z,99.90
2022-10-29T07:02:58.330Z,99.90
2022-10-29T07:05:26.749Z,99.90
2022-10-29T07:07:58.063Z,99.90
2022-10-29T07:10:28.346Z,99.90
2022-10-29T07:12:56.624Z,99.90
2022-10-29T07:15:27.487Z,99.90
2022-10-29T07:17:56.967Z,99.90
2022-10-29T07:20:25.450Z,99.90
2022-10-29T07:22:53.472Z,99.90
2022-10-29T07:25:22.844Z,99.90
2022-10-29T07:27:51.158Z,99.90
2022-10-29T07:30:19.413Z,99.90
2022-10-29T07:32:48.506Z,99.90
2022-10-29T07:35:16.577Z,99.90
2022-10-29T07:37:44.477Z,99.90
2022-10-29T07:40:13.613Z,99.90
2022-10-29T07:42:42.853Z,99.90
2022-10-29T07:45:11.519Z,99.90
2022-10-29T07:47:39.420Z,99.90
2022-10-29T07:50:08.314Z,99.90
2022-10-29T07:52:36.272Z,99.90
2022-10-29T07:55:04.317Z,99.90
2022-10-29T07:57:32.264Z,99.90
2022-10-29T08:00:01.502Z,99.90
2022-10-29T08:02:29.415Z,99.90
2022-10-29T08:04:57.320Z,99.90
2022-10-29T08:07:25.262Z,99.90
2022-10-29T08:09:53.140Z,99.90
2022-10-29T08:12:21.266Z,99.90
2022-10-29T08:14:49.193Z,99.90
2022-10-29T08:17:18.502Z,99.90
2022-10-29T08:19:47.358Z,99.90
2022-10-29T08:22:15.279Z,99.90
2022-10-29T08:24:43.200Z,99.90
2022-10-29T08:27:11.125Z,99.90
2022-10-29T08:29:39.036Z,99.90
2022-10-29T08:32:07.002Z,99.90
2022-10-29T08:34:36.297Z,99.90
2022-10-29T08:37:04.180Z,99.90
2022-10-29T08:39:32.129Z,99.90
2022-10-29T08:42:07.927Z,99.90
2022-10-29T08:44:59.043Z,99.90
2022-10-29T08:47:27.056Z,99.90
2022-10-29T08:50:05.048Z,99.90
2022-10-29T08:52:37.798Z,99.90
2022-10-29T08:55:13.971Z,99.90
2022-10-29T08:57:45.141Z,99.90
2022-10-29T09:00:17.116Z,99.90
2022-10-29T09:02:45.115Z,99.90
2022-10-29T09:05:15.956Z,99.90
2022-10-29T09:07:57.187Z,99.90
2022-10-29T09:10:34.218Z,99.90
2022-10-29T09:13:15.546Z,99.90
2022-10-29T09:16:08.154Z,99.90
2022-10-29T09:18:50.452Z,99.90
2022-10-29T09:21:30.491Z,99.90
2022-10-29T09:24:13.454Z,99.90
2022-10-29T09:26:49.638Z,99.90
2022-10-29T09:29:40.117Z,99.90
2022-10-29T09:32:12.551Z,99.90
2022-10-29T09:34:44.026Z,99.90
2022-10-29T09:37:17.535Z,99.90
2022-10-29T09:39:48.421Z,99.90
2022-10-29T09:42:21.167Z,99.90
2022-10-29T09:44:53.138Z,99.90
2022-10-29T09:47:31.630Z,99.90
2022-10-29T09:50:11.109Z,99.90
2022-10-29T09:52:43.281Z,99.90
2022-10-29T09:55:19.355Z,99.90
2022-10-29T09:57:49.590Z,99.90
2022-10-29T10:00:21.367Z,99.90
2022-10-29T10:02:54.943Z,99.90
2022-10-29T10:05:27.159Z,99.90
2022-10-29T10:08:11.333Z,99.90
2022-10-29T10:10:53.825Z,99.90
2022-10-29T10:13:27.027Z,99.90
2022-10-29T10:15:56.817Z,99.90
2022-10-29T10:18:26.878Z,99.90
2022-10-29T10:21:04.303Z,99.90
2022-10-29T10:23:42.157Z,99.90
2022-10-29T10:26:28.331Z,99.90
2022-10-29T10:29:06.557Z,99.90
2022-10-29T10:31:34.471Z,99.90
2022-10-29T10:34:10.492Z,99.90
2022-10-29T10:36:41.623Z,99.90
2022-10-29T10:39:24.543Z,99.90
2022-10-29T10:41:53.268Z,99.90
2022-10-29T10:44:23.171Z,99.90
2022-10-29T10:46:54.283Z,99.90
2022-10-29T10:49:31.485Z,99.90
2022-10-29T10:52:01.109Z,99.90
2022-10-29T10:54:37.754Z,99.90
2022-10-29T10:57:20.653Z,99.90
2022-10-29T10:59:55.327Z,99.90
2022-10-29T11:02:30.420Z,99.90
2022-10-29T11:05:05.120Z,99.90
2022-10-29T11:07:38.431Z,99.90
2022-10-29T11:10:13.190Z,99.90
2022-10-29T11:12:45.292Z,99.90
2022-10-29T11:15:18.957Z,99.90
2022-10-29T11:17:54.287Z,99.90
2022-10-29T11:20:27.906Z,99.90
2022-10-29T11:23:07.318Z,99.90
2022-10-29T11:25:45.338Z,99.90
2022-10-29T11:28:24.446Z,99.90
2022-10-29T11:30:59.189Z,99.90
2022-10-29T11:33:36.867Z,99.90
2022-10-29T11:36:12.848Z,99.90
2022-10-29T11:38:44.885Z,99.90
2022-10-29T11:41:24.834Z,99.90
2022-10-29T11:43:53.015Z,99.90
2022-10-29T11:46:29.940Z,99.90
2022-10-29T11:49:11.181Z,99.90
2022-10-29T11:51:47.813Z,99.90
2022-10-29T11:54:26.824Z,99.90
2022-10-29T11:57:00.510Z,99.90
2022-10-29T11:59:39.703Z,99.90
2022-10-29T12:02:28.007Z,99.90
2022-10-29T12:05:03.018Z,99.90
2022-10-29T12:07:43.079Z,99.90
2022-10-29T12:10:35.153Z,99.90
2022-10-29T12:13:14.792Z,99.90
2022-10-29T12:15:47.978Z,99.90
2022-10-29T12:18:22.427Z,99.90
2022-10-29T12:20:58.658Z,99.90
2022-10-29T12:23:35.705Z,99.90
2022-10-29T12:26:11.643Z,99.90
2022-10-29T12:28:49.814Z,99.90
2022-10-29T12:31:32.025Z,99.90
2022-10-29T12:34:04.934Z,99.90
2022-10-29T12:36:40.056Z,99.90
2022-10-29T12:39:19.931Z,99.90
2022-10-29T12:41:51.047Z,99.90
2022-10-29T12:44:26.929Z,99.90
2022-10-29T12:47:03.551Z,99.90
2022-10-29T12:49:44.441Z,99.90
2022-10-29T12:52:18.120Z,99.90
2022-10-29T12:54:48.491Z,99.90
2022-10-29T12:57:30.293Z,99.90
2022-10-29T13:00:40.075Z,99.90
2022-10-29T13:03:09.343Z,99.90
2022-10-29T13:05:42.929Z,99.90
2022-10-29T13:08:27.786Z,99.90
2022-10-29T13:10:57.328Z,99.90
2022-10-29T13:13:40.516Z,99.90
2022-10-29T13:16:16.878Z,99.90
2022-10-29T13:18:58.029Z,99.90
2022-10-29T13:21:57.939Z,99.90
2022-10-29T13:24:26.683Z,99.90
2022-10-29T13:27:03.255Z,99.90
2022-10-29T13:29:52.179Z,99.90
2022-10-29T13:32:35.308Z,99.90
2022-10-29T13:35:05.757Z,99.90
2022-10-29T13:37:55.318Z,99.90
2022-10-29T13:41:03.191Z,99.90
2022-10-29T13:43:32.788Z,99.90
2022-10-29T13:46:31.934Z,99.90
2022-10-29T13:49:04.322Z,99.90
2022-10-29T13:51:39.832Z,99.90
2022-10-29T13:54:17.093Z,99.90
2022-10-29T13:56:49.647Z,99.90
2022-10-29T13:59:24.047Z,99.90
2022-10-29T14:02:17.174Z,99.90
2022-10-29T14:04:51.313Z,99.90
2022-10-29T14:07:24.727Z,99.90
2022-10-29T14:09:57.081Z,99.90
2022-10-29T14:12:31.030Z,99.90
2022-10-29T14:15:04.882Z,99.90
2022-10-29T14:17:33.001Z,99.90
2022-10-29T14:20:02.408Z,99.90
2022-10-29T14:22:36.624Z,99.90
2022-10-29T14:25:27.449Z,99.90
2022-10-29T14:28:26.084Z,99.90
2022-10-29T14:31:03.381Z,99.90
2022-10-29T14:33:33.559Z,99.90
2022-10-29T14:36:10.748Z,99.90
2022-10-29T14:38:42.694Z,99.90
2022-10-29T14:41:11.344Z,99.90
2022-10-29T14:43:40.079Z,99.20
2022-10-29T14:46:27.373Z,98.00
2022-10-29T14:49:00.830Z,97.70
2022-10-29T14:51:34.475Z,97.00
2022-10-29T14:54:04.946Z,97.20
2022-10-29T14:56:35.632Z,97.50
2022-10-29T14:59:10.617Z,96.00
2022-10-29T15:01:47.697Z,96.50
2022-10-29T15:04:26.085Z,97.10
2022-10-29T15:07:14.797Z,97.00
2022-10-29T15:09:42.886Z,95.40
2022-10-29T15:12:20.930Z,95.80
2022-10-29T15:14:50.289Z,95.70
2022-10-29T15:17:22.948Z,95.70
2022-10-29T15:19:55.495Z,96.40
2022-10-29T15:22:32.354Z,96.80
2022-10-29T15:25:02.214Z,96.00
2022-10-29T15:27:30.418Z,96.30
2022-10-29T15:29:58.456Z,96.60
2022-10-29T15:32:31.413Z,97.30
2022-10-29T15:35:00.458Z,97.60
2022-10-29T15:37:42.733Z,98.10
2022-10-29T15:40:13.539Z,98.40
2022-10-29T15:42:41.983Z,98.60
2022-10-29T15:45:24.471Z,98.80
2022-10-29T15:47:56.453Z,99.00
2022-10-29T15:50:28.134Z,99.20
2022-10-29T15:53:01.694Z,99.50
2022-10-29T15:55:31.931Z,99.60
2022-10-29T15:58:05.378Z,99.90
2022-10-29T16:00:33.954Z,99.90
2022-10-29T16:03:13.176Z,99.90
2022-10-29T16:05:41.672Z,99.70
2022-10-29T16:08:25.625Z,99.70
2022-10-29T16:10:54.599Z,99.60
2022-10-29T16:13:23.667Z,99.50
2022-10-29T16:15:51.597Z,99.80
2022-10-29T16:18:19.566Z,99.90
2022-10-29T16:20:47.979Z,99.90
2022-10-29T16:23:17.322Z,99.90
2022-10-29T16:25:45.244Z,99.90
2022-10-29T16:28:13.142Z,99.90
2022-10-29T16:30:41.357Z,99.90
2022-10-29T16:33:11.395Z,99.90
2022-10-29T16:35:39.349Z,99.90
2022-10-29T16:38:07.348Z,99.90
2022-10-29T16:40:36.681Z,99.90
2022-10-29T16:43:04.588Z,99.90
2022-10-29T16:45:33.179Z,99.90
2022-10-29T16:48:01.418Z,99.90
2022-10-29T16:50:31.694Z,99.90
2022-10-29T16:53:00.462Z,99.90
2022-10-29T16:55:29.753Z,99.90
2022-10-29T16:57:59.523Z,99.90
2022-10-29T17:00:31.498Z,99.90
2022-10-29T17:03:04.782Z,99.90
2022-10-29T17:05:36.531Z,99.90
2022-10-29T17:37:47.320Z,99.90
2022-10-29T17:40:15.355Z,99.90
2022-10-29T17:42:43.236Z,99.90
2022-10-29T17:45:13.386Z,99.90
2022-10-29T17:47:42.670Z,99.90
2022-10-29T17:50:10.918Z,99.90
2022-10-29T17:52:38.819Z,99.90
2022-10-29T17:55:07.912Z,99.90
2022-10-29T17:57:35.861Z,99.90
2022-10-29T18:00:04.757Z,99.90
2022-10-29T18:02:32.730Z,99.90
2022-10-29T18:05:02.033Z,99.90
2022-10-29T18:07:29.967Z,99.90
2022-10-29T18:09:57.884Z,99.90
2022-10-29T18:12:25.849Z,99.90
2022-10-29T18:14:53.700Z,99.90
2022-10-29T18:17:21.693Z,99.90
2022-10-29T18:19:49.633Z,99.90
2022-10-29T18:22:19.299Z,99.90
2022-10-29T18:24:47.228Z,99.90
2022-10-29T18:27:15.875Z,99.90
2022-10-29T18:29:43.816Z,99.90
2022-10-29T18:32:11.740Z,99.90
2022-10-29T18:34:39.636Z,99.90
2022-10-29T18:37:07.759Z,99.90
2022-10-29T18:39:37.043Z,99.90
2022-10-29T18:42:05.188Z,99.90
2022-10-29T18:44:33.094Z,99.90
2022-10-29T18:47:01.007Z,99.90
2022-10-29T18:49:28.929Z,99.90
2022-10-29T18:51:56.947Z,99.90
2022-10-29T18:54:24.918Z,99.90
2022-10-29T18:56:54.227Z,99.90
2022-10-29T18:59:22.951Z,99.90
2022-10-29T19:01:51.009Z,99.90
2022-10-29T19:04:19.025Z,99.90
2022-10-29T19:06:46.964Z,99.90
2022-10-29T19:09:14.926Z,99.90
2022-10-29T19:11:42.856Z,99.90
2022-10-29T19:14:14.895Z,99.90
2022-10-29T19:16:42.813Z,99.90
2022-10-29T19:19:14.421Z,99.90
2022-10-29T19:21:43.294Z,99.90
2022-10-29T19:24:14.145Z,99.90
2022-10-29T19:26:42.828Z,99.90
2022-10-29T19:29:12.461Z,99.90
2022-10-29T19:31:43.801Z,99.90
2022-10-29T19:34:11.703Z,99.90
2022-10-29T19:36:40.606Z,99.90
2022-10-29T19:39:09.114Z,99.90
2022-10-29T19:41:37.020Z,99.90
2022-10-29T19:44:05.443Z,99.90
2022-10-29T19:46:34.700Z,99.90
2022-10-29T19:49:03.457Z,99.90
2022-10-29T19:51:31.443Z,99.90
2022-10-29T19:54:01.848Z,99.90
2022-10-29T19:56:29.811Z,99.90
2022-10-29T19:58:57.742Z,99.90
2022-10-29T20:01:25.735Z,99.90
2022-10-29T20:03:55.066Z,99.90
2022-10-29T20:06:22.995Z,99.90
2022-10-29T20:08:51.170Z,99.90
2022-10-29T20:11:19.102Z,99.90
2022-10-29T20:13:47.027Z,99.90
2022-10-29T20:16:17.836Z,99.90
2022-10-29T20:18:46.379Z,99.90
2022-10-29T20:21:16.442Z,99.90
2022-10-29T20:23:45.659Z,99.90
2022-10-29T20:26:14.038Z,99.90
2022-10-29T20:28:42.342Z,99.90
2022-10-29T20:31:15.388Z,99.90
2022-10-29T20:33:43.426Z,99.90
2022-10-29T20:36:11.398Z,99.90
2022-10-29T20:38:40.743Z,99.90
2022-10-29T20:41:08.990Z,99.90
2022-10-29T20:43:36.888Z,99.90
2022-10-29T20:46:05.316Z,99.90
2022-10-29T20:48:36.266Z,99.90
2022-10-29T20:51:04.950Z,99.90
2022-10-29T20:53:33.003Z,99.90
2022-10-29T20:56:02.313Z,99.90
2022-10-29T20:58:30.324Z,99.90
2022-10-29T21:01:05.733Z,99.90
2022-10-29T21:03:33.808Z,99.90
2022-10-29T21:06:02.895Z,99.90
2022-10-29T21:08:31.193Z,99.90
2022-10-29T21:11:00.248Z,99.90
2022-10-29T21:13:30.209Z,99.90
2022-10-29T21:16:05.609Z,99.90
2022-10-29T21:18:38.776Z,99.90
2022-10-29T21:21:07.585Z,99.90
2022-10-29T21:23:37.071Z,99.90
2022-10-29T21:26:05.568Z,99.90
2022-10-29T21:28:35.012Z,99.90
2022-10-29T21:31:02.948Z,99.90
2022-10-29T21:35:59.612Z,99.90
2022-10-29T21:38:28.793Z,99.90
2022-10-29T21:40:57.097Z,99.90
2022-10-29T21:43:25.129Z,99.90
2022-10-29T21:45:54.411Z,99.90
2022-10-29T21:48:22.790Z,99.90
2022-10-29T21:50:50.680Z,99.90
2022-10-29T21:53:18.573Z,99.90
2022-10-29T21:55:46.503Z,99.90
2022-10-29T21:58:14.391Z,99.90
2022-10-29T22:00:42.314Z,99.90
2022-10-29T22:03:11.527Z,99.90
2022-10-29T22:05:39.419Z,99.90
2022-10-29T22:08:07.321Z,99.90
2022-10-29T22:10:35.238Z,99.90
2022-10-29T22:13:03.115Z,99.90
2022-10-29T22:15:31.014Z,99.90
2022-10-29T22:17:58.925Z,99.90
2022-10-29T22:20:28.271Z,99.90
2022-10-29T22:22:56.586Z,99.90
2022-10-29T22:25:24.902Z,99.90
2022-10-29T22:27:52.813Z,99.90
2022-10-29T22:30:20.721Z,99.90
2022-10-29T22:32:48.605Z,99.90
2022-10-29T22:35:16.614Z,99.90
2022-10-29T22:37:45.900Z,99.90
2022-10-29T22:40:13.946Z,99.90
2022-10-29T22:42:41.830Z,99.90
2022-10-29T22:45:10.734Z,99.90
2022-10-29T22:47:38.636Z,99.90
2022-10-29T22:50:07.002Z,99.90
2022-10-29T22:52:34.971Z,99.90
2022-10-29T22:55:04.697Z,99.90
2022-10-29T22:57:32.569Z,99.90
2022-10-29T23:00:00.460Z,99.90
2022-10-29T23:02:28.415Z,99.90
2022-10-29T23:04:56.366Z,99.90
2022-10-29T23:07:24.369Z,99.90
2022-10-29T23:09:52.292Z,99.90
2022-10-29T23:12:21.587Z,99.90
2022-10-29T23:14:49.536Z,99.90
2022-10-29T23:17:20.173Z,99.90
2022-10-29T23:19:48.101Z,99.90
2022-10-29T23:22:16.075Z,99.90
2022-10-29T23:24:44.012Z,99.90
2022-10-29T23:27:11.930Z,99.90
2022-10-29T23:29:41.175Z,99.90
2022-10-29T23:32:09.047Z,99.90
2022-10-29T23:34:36.950Z,99.90
2022-10-29T23:37:08.721Z,99.90
2022-10-29T23:39:38.181Z,99.90
2022-10-29T23:42:06.200Z,99.90
2022-10-29T23:44:34.090Z,99.90
2022-10-29T23:47:03.308Z,99.90
2022-10-29T23:49:31.218Z,99.90
2022-10-29T23:51:59.115Z,99.90
2022-10-29T23:54:27.002Z,99.90
2022-10-29T23:56:54.889Z,99.90
2022-10-29T23:59:22.774Z,99.90
